sensor_id;sensor_type;location;lat;lon;timestamp;P1;durP1;ratioP1;P2;durP2;ratioP2
55811;SDS011;41742;52.048;6.092;2022-10-31T00:01:59;5.43;;;1.85;;
55811;SDS011;41742;52.048;6.092;2022-10-31T00:04:25;2.42;;;1.50;;
55811;SDS011;41742;52.048;6.092;2022-10-31T00:06:50;3.53;;;1.80;;
55811;SDS011;41742;52.048;6.092;2022-10-31T00:09:16;6.95;;;1.65;;
55811;SDS011;41742;52.048;6.092;2022-10-31T00:11:41;10.05;;;2.20;;
55811;SDS011;41742;52.048;6.092;2022-10-31T00:14:07;4.45;;;1.67;;
55811;SDS011;41742;52.048;6.092;2022-10-31T00:16:33;5.25;;;2.13;;
55811;SDS011;41742;52.048;6.092;2022-10-31T00:18:59;5.00;;;1.77;;
55811;SDS011;41742;52.048;6.092;2022-10-31T00:21:27;4.25;;;1.67;;
55811;SDS011;41742;52.048;6.092;2022-10-31T00:23:53;2.67;;;1.55;;
55811;SDS011;41742;52.048;6.092;2022-10-31T00:26:19;10.55;;;1.73;;
55811;SDS011;41742;52.048;6.092;2022-10-31T00:28:46;12.38;;;2.40;;
55811;SDS011;41742;52.048;6.092;2022-10-31T00:31:12;7.53;;;1.42;;
55811;SDS011;41742;52.048;6.092;2022-10-31T00:33:38;3.53;;;1.80;;
55811;SDS011;41742;52.048;6.092;2022-10-31T00:36:05;14.32;;;2.10;;
55811;SDS011;41742;52.048;6.092;2022-10-31T00:38:32;8.88;;;2.30;;
55811;SDS011;41742;52.048;6.092;2022-10-31T00:40:58;6.40;;;1.85;;
55811;SDS011;41742;52.048;6.092;2022-10-31T00:43:24;7.68;;;1.23;;
55811;SDS011;41742;52.048;6.092;2022-10-31T00:45:49;4.30;;;1.40;;
55811;SDS011;41742;52.048;6.092;2022-10-31T00:48:15;11.13;;;2.00;;
55811;SDS011;41742;52.048;6.092;2022-10-31T00:50:41;4.78;;;1.48;;
55811;SDS011;41742;52.048;6.092;2022-10-31T00:53:07;5.00;;;2.50;;
55811;SDS011;41742;52.048;6.092;2022-10-31T00:55:33;6.10;;;3.03;;
55811;SDS011;41742;52.048;6.092;2022-10-31T00:57:58;5.55;;;2.08;;
55811;SDS011;41742;52.048;6.092;2022-10-31T01:00:24;12.32;;;1.95;;
55811;SDS011;41742;52.048;6.092;2022-10-31T01:02:50;10.98;;;2.65;;
55811;SDS011;41742;52.048;6.092;2022-10-31T01:05:16;8.40;;;2.60;;
55811;SDS011;41742;52.048;6.092;2022-10-31T01:07:43;7.10;;;2.85;;
55811;SDS011;41742;52.048;6.092;2022-10-31T01:10:09;4.18;;;2.42;;
55811;SDS011;41742;52.048;6.092;2022-10-31T01:12:36;14.23;;;3.20;;
55811;SDS011;41742;52.048;6.092;2022-10-31T01:15:02;6.10;;;3.30;;
55811;SDS011;41742;52.048;6.092;2022-10-31T01:17:28;5.35;;;2.67;;
55811;SDS011;41742;52.048;6.092;2022-10-31T01:19:54;3.88;;;2.25;;
55811;SDS011;41742;52.048;6.092;2022-10-31T01:22:20;3.45;;;2.20;;
55811;SDS011;41742;52.048;6.092;2022-10-31T01:24:45;3.42;;;2.50;;
55811;SDS011;41742;52.048;6.092;2022-10-31T01:27:11;7.95;;;2.90;;
55811;SDS011;41742;52.048;6.092;2022-10-31T01:29:36;4.05;;;2.40;;
55811;SDS011;41742;52.048;6.092;2022-10-31T01:32:02;7.25;;;3.05;;
55811;SDS011;41742;52.048;6.092;2022-10-31T01:34:28;10.38;;;3.00;;
55811;SDS011;41742;52.048;6.092;2022-10-31T01:36:53;9.60;;;2.83;;
55811;SDS011;41742;52.048;6.092;2022-10-31T01:39:21;6.40;;;1.98;;
55811;SDS011;41742;52.048;6.092;2022-10-31T01:41:48;4.70;;;2.15;;
55811;SDS011;41742;52.048;6.092;2022-10-31T01:49:31;11.90;;;2.63;;
55811;SDS011;41742;52.048;6.092;2022-10-31T01:52:14;4.13;;;2.33;;
55811;SDS011;41742;52.048;6.092;2022-10-31T01:54:54;6.15;;;2.60;;
55811;SDS011;41742;52.048;6.092;2022-10-31T01:57:24;13.98;;;3.45;;
55811;SDS011;41742;52.048;6.092;2022-10-31T01:59:51;16.55;;;4.03;;
55811;SDS011;41742;52.048;6.092;2022-10-31T02:02:20;4.90;;;3.05;;
55811;SDS011;41742;52.048;6.092;2022-10-31T02:04:45;12.20;;;3.08;;
55811;SDS011;41742;52.048;6.092;2022-10-31T02:07:14;5.20;;;2.50;;
55811;SDS011;41742;52.048;6.092;2022-10-31T02:09:43;19.02;;;2.80;;
55811;SDS011;41742;52.048;6.092;2022-10-31T02:12:12;5.63;;;2.53;;
55811;SDS011;41742;52.048;6.092;2022-10-31T02:14:38;8.65;;;2.20;;
55811;SDS011;41742;52.048;6.092;2022-10-31T02:17:05;13.00;;;4.22;;
55811;SDS011;41742;52.048;6.092;2022-10-31T02:19:36;9.30;;;2.88;;
55811;SDS011;41742;52.048;6.092;2022-10-31T02:22:26;6.07;;;2.70;;
55811;SDS011;41742;52.048;6.092;2022-10-31T02:25:06;2.85;;;2.17;;
55811;SDS011;41742;52.048;6.092;2022-10-31T02:33:06;5.63;;;2.63;;
55811;SDS011;41742;52.048;6.092;2022-10-31T02:36:02;4.22;;;2.50;;
55811;SDS011;41742;52.048;6.092;2022-10-31T02:44:35;6.75;;;3.25;;
55811;SDS011;41742;52.048;6.092;2022-10-31T02:47:06;10.75;;;3.53;;
55811;SDS011;41742;52.048;6.092;2022-10-31T02:49:38;11.88;;;3.78;;
55811;SDS011;41742;52.048;6.092;2022-10-31T02:54:48;6.70;;;3.63;;
55811;SDS011;41742;52.048;6.092;2022-10-31T02:57:13;6.25;;;2.70;;
55811;SDS011;41742;52.048;6.092;2022-10-31T02:59:45;7.10;;;3.00;;
55811;SDS011;41742;52.048;6.092;2022-10-31T03:02:17;6.55;;;3.13;;
55811;SDS011;41742;52.048;6.092;2022-10-31T03:04:54;8.20;;;3.33;;
55811;SDS011;41742;52.048;6.092;2022-10-31T03:11:05;10.07;;;2.53;;
55811;SDS011;41742;52.048;6.092;2022-10-31T03:13:30;12.15;;;2.63;;
55811;SDS011;41742;52.048;6.092;2022-10-31T03:19:14;3.67;;;2.17;;
55811;SDS011;41742;52.048;6.092;2022-10-31T03:21:46;14.40;;;2.42;;
55811;SDS011;41742;52.048;6.092;2022-10-31T03:24:15;8.52;;;2.63;;
55811;SDS011;41742;52.048;6.092;2022-10-31T03:26:42;7.20;;;1.98;;
55811;SDS011;41742;52.048;6.092;2022-10-31T03:29:13;3.33;;;2.10;;
55811;SDS011;41742;52.048;6.092;2022-10-31T03:31:49;10.23;;;2.55;;
55811;SDS011;41742;52.048;6.092;2022-10-31T03:34:21;7.20;;;2.33;;
55811;SDS011;41742;52.048;6.092;2022-10-31T03:36:49;9.90;;;2.45;;
55811;SDS011;41742;52.048;6.092;2022-10-31T03:39:17;8.82;;;2.17;;
55811;SDS011;41742;52.048;6.092;2022-10-31T03:41:46;2.95;;;1.65;;
55811;SDS011;41742;52.048;6.092;2022-10-31T03:44:21;15.40;;;3.63;;
55811;SDS011;41742;52.048;6.092;2022-10-31T03:46:56;8.85;;;2.20;;
55811;SDS011;41742;52.048;6.092;2022-10-31T03:49:22;5.18;;;2.03;;
55811;SDS011;41742;52.048;6.092;2022-10-31T03:51:55;9.52;;;2.05;;
55811;SDS011;41742;52.048;6.092;2022-10-31T03:57:17;8.30;;;2.30;;
55811;SDS011;41742;52.048;6.092;2022-10-31T03:59:51;4.90;;;2.20;;
55811;SDS011;41742;52.048;6.092;2022-10-31T04:02:45;7.50;;;2.28;;
55811;SDS011;41742;52.048;6.092;2022-10-31T04:05:17;14.43;;;2.75;;
55811;SDS011;41742;52.048;6.092;2022-10-31T04:07:45;7.97;;;2.50;;
55811;SDS011;41742;52.048;6.092;2022-10-31T04:10:15;11.80;;;2.88;;
55811;SDS011;41742;52.048;6.092;2022-10-31T04:12:42;6.93;;;2.60;;
55811;SDS011;41742;52.048;6.092;2022-10-31T04:15:20;10.20;;;2.20;;
55811;SDS011;41742;52.048;6.092;2022-10-31T04:17:47;9.85;;;2.25;;
55811;SDS011;41742;52.048;6.092;2022-10-31T04:20:17;5.30;;;2.30;;
55811;SDS011;41742;52.048;6.092;2022-10-31T04:22:43;4.63;;;2.58;;
55811;SDS011;41742;52.048;6.092;2022-10-31T04:25:09;3.55;;;2.40;;
55811;SDS011;41742;52.048;6.092;2022-10-31T04:27:36;8.30;;;2.53;;
55811;SDS011;41742;52.048;6.092;2022-10-31T04:30:02;2.70;;;2.10;;
55811;SDS011;41742;52.048;6.092;2022-10-31T04:32:31;4.82;;;2.28;;
55811;SDS011;41742;52.048;6.092;2022-10-31T04:34:57;6.78;;;2.42;;
55811;SDS011;41742;52.048;6.092;2022-10-31T04:37:22;7.28;;;2.90;;
55811;SDS011;41742;52.048;6.092;2022-10-31T04:39:48;4.25;;;2.50;;
55811;SDS011;41742;52.048;6.092;2022-10-31T04:42:34;6.13;;;2.67;;
55811;SDS011;41742;52.048;6.092;2022-10-31T04:45:02;8.80;;;2.65;;
55811;SDS011;41742;52.048;6.092;2022-10-31T04:47:30;6.15;;;3.03;;
55811;SDS011;41742;52.048;6.092;2022-10-31T04:49:58;8.90;;;3.20;;
55811;SDS011;41742;52.048;6.092;2022-10-31T04:52:24;9.63;;;2.72;;
55811;SDS011;41742;52.048;6.092;2022-10-31T04:54:50;13.45;;;2.85;;
55811;SDS011;41742;52.048;6.092;2022-10-31T04:57:48;12.05;;;3.13;;
55811;SDS011;41742;52.048;6.092;2022-10-31T05:00:17;6.28;;;2.72;;
55811;SDS011;41742;52.048;6.092;2022-10-31T05:02:45;4.55;;;2.50;;
55811;SDS011;41742;52.048;6.092;2022-10-31T05:05:15;6.95;;;3.35;;
55811;SDS011;41742;52.048;6.092;2022-10-31T05:07:43;5.20;;;2.60;;
55811;SDS011;41742;52.048;6.092;2022-10-31T05:10:09;6.28;;;2.78;;
55811;SDS011;41742;52.048;6.092;2022-10-31T05:12:45;10.77;;;2.50;;
55811;SDS011;41742;52.048;6.092;2022-10-31T05:15:31;8.00;;;2.80;;
55811;SDS011;41742;52.048;6.092;2022-10-31T05:18:15;10.00;;;2.67;;
55811;SDS011;41742;52.048;6.092;2022-10-31T05:21:10;10.07;;;3.08;;
55811;SDS011;41742;52.048;6.092;2022-10-31T05:23:41;5.45;;;2.45;;
55811;SDS011;41742;52.048;6.092;2022-10-31T05:26:07;5.13;;;2.50;;
55811;SDS011;41742;52.048;6.092;2022-10-31T05:28:33;8.75;;;3.28;;
55811;SDS011;41742;52.048;6.092;2022-10-31T05:30:59;8.20;;;2.53;;
55811;SDS011;41742;52.048;6.092;2022-10-31T05:33:24;16.88;;;3.15;;
55811;SDS011;41742;52.048;6.092;2022-10-31T05:38:40;19.77;;;3.47;;
55811;SDS011;41742;52.048;6.092;2022-10-31T05:41:20;10.20;;;3.70;;
55811;SDS011;41742;52.048;6.092;2022-10-31T05:43:46;7.50;;;3.38;;
55811;SDS011;41742;52.048;6.092;2022-10-31T05:46:13;22.80;;;3.40;;
55811;SDS011;41742;52.048;6.092;2022-10-31T05:48:57;9.90;;;3.45;;
55811;SDS011;41742;52.048;6.092;2022-10-31T05:51:45;8.35;;;2.78;;
55811;SDS011;41742;52.048;6.092;2022-10-31T05:54:11;9.10;;;3.40;;
55811;SDS011;41742;52.048;6.092;2022-10-31T05:56:38;5.68;;;3.70;;
55811;SDS011;41742;52.048;6.092;2022-10-31T05:59:04;16.65;;;3.80;;
55811;SDS011;41742;52.048;6.092;2022-10-31T06:01:29;10.82;;;3.97;;
55811;SDS011;41742;52.048;6.092;2022-10-31T06:03:59;15.73;;;3.17;;
55811;SDS011;41742;52.048;6.092;2022-10-31T06:06:24;19.45;;;3.55;;
55811;SDS011;41742;52.048;6.092;2022-10-31T06:08:51;9.80;;;3.67;;
55811;SDS011;41742;52.048;6.092;2022-10-31T06:11:19;7.65;;;3.05;;
55811;SDS011;41742;52.048;6.092;2022-10-31T06:14:03;7.97;;;2.92;;
55811;SDS011;41742;52.048;6.092;2022-10-31T06:16:40;17.10;;;3.90;;
55811;SDS011;41742;52.048;6.092;2022-10-31T06:19:35;9.43;;;3.10;;
55811;SDS011;41742;52.048;6.092;2022-10-31T06:22:00;5.45;;;3.13;;
55811;SDS011;41742;52.048;6.092;2022-10-31T06:24:27;6.45;;;3.10;;
55811;SDS011;41742;52.048;6.092;2022-10-31T06:26:53;13.32;;;3.92;;
55811;SDS011;41742;52.048;6.092;2022-10-31T06:29:19;4.40;;;2.85;;
55811;SDS011;41742;52.048;6.092;2022-10-31T06:31:57;8.18;;;3.60;;
55811;SDS011;41742;52.048;6.092;2022-10-31T06:34:23;17.58;;;3.80;;
55811;SDS011;41742;52.048;6.092;2022-10-31T06:36:49;20.52;;;3.35;;
55811;SDS011;41742;52.048;6.092;2022-10-31T06:39:16;4.57;;;3.30;;
55811;SDS011;41742;52.048;6.092;2022-10-31T06:41:42;4.68;;;3.28;;
55811;SDS011;41742;52.048;6.092;2022-10-31T06:44:09;5.55;;;2.75;;
55811;SDS011;41742;52.048;6.092;2022-10-31T06:46:55;6.47;;;2.80;;
55811;SDS011;41742;52.048;6.092;2022-10-31T06:49:46;5.53;;;2.45;;
55811;SDS011;41742;52.048;6.092;2022-10-31T06:52:15;10.63;;;2.50;;
55811;SDS011;41742;52.048;6.092;2022-10-31T06:54:40;13.00;;;2.58;;
55811;SDS011;41742;52.048;6.092;2022-10-31T06:57:07;17.98;;;3.20;;
55811;SDS011;41742;52.048;6.092;2022-10-31T06:59:32;6.93;;;2.45;;
55811;SDS011;41742;52.048;6.092;2022-10-31T07:02:09;7.63;;;2.85;;
55811;SDS011;41742;52.048;6.092;2022-10-31T07:04:35;8.95;;;3.38;;
55811;SDS011;41742;52.048;6.092;2022-10-31T07:07:01;9.93;;;4.47;;
55811;SDS011;41742;52.048;6.092;2022-10-31T07:09:28;10.88;;;4.40;;
55811;SDS011;41742;52.048;6.092;2022-10-31T07:11:56;17.80;;;5.05;;
55811;SDS011;41742;52.048;6.092;2022-10-31T07:14:21;14.82;;;5.75;;
55811;SDS011;41742;52.048;6.092;2022-10-31T07:16:48;9.73;;;3.92;;
55811;SDS011;41742;52.048;6.092;2022-10-31T07:19:15;15.02;;;4.13;;
55811;SDS011;41742;52.048;6.092;2022-10-31T07:21:41;7.30;;;3.75;;
55811;SDS011;41742;52.048;6.092;2022-10-31T07:24:08;13.07;;;3.95;;
55811;SDS011;41742;52.048;6.092;2022-10-31T07:26:54;6.78;;;3.30;;
55811;SDS011;41742;52.048;6.092;2022-10-31T07:29:19;9.18;;;3.80;;
55811;SDS011;41742;52.048;6.092;2022-10-31T07:31:45;11.05;;;3.72;;
55811;SDS011;41742;52.048;6.092;2022-10-31T07:34:18;9.07;;;4.97;;
55811;SDS011;41742;52.048;6.092;2022-10-31T07:37:02;20.15;;;5.45;;
55811;SDS011;41742;52.048;6.092;2022-10-31T07:39:29;23.95;;;5.70;;
55811;SDS011;41742;52.048;6.092;2022-10-31T07:41:57;13.82;;;5.50;;
55811;SDS011;41742;52.048;6.092;2022-10-31T07:44:23;10.73;;;5.13;;
55811;SDS011;41742;52.048;6.092;2022-10-31T07:47:14;14.60;;;4.88;;
55811;SDS011;41742;52.048;6.092;2022-10-31T07:52:43;10.40;;;5.40;;
55811;SDS011;41742;52.048;6.092;2022-10-31T07:55:29;12.98;;;6.22;;
55811;SDS011;41742;52.048;6.092;2022-10-31T07:58:04;9.98;;;5.57;;
55811;SDS011;41742;52.048;6.092;2022-10-31T08:05:47;21.00;;;6.70;;
55811;SDS011;41742;52.048;6.092;2022-10-31T08:08:28;12.18;;;5.55;;
55811;SDS011;41742;52.048;6.092;2022-10-31T08:10:54;11.50;;;5.85;;
55811;SDS011;41742;52.048;6.092;2022-10-31T08:13:20;14.95;;;5.30;;
55811;SDS011;41742;52.048;6.092;2022-10-31T08:15:49;10.63;;;5.22;;
55811;SDS011;41742;52.048;6.092;2022-10-31T08:18:19;7.82;;;4.82;;
55811;SDS011;41742;52.048;6.092;2022-10-31T08:20:47;11.82;;;5.13;;
55811;SDS011;41742;52.048;6.092;2022-10-31T08:23:12;7.60;;;4.75;;
55811;SDS011;41742;52.048;6.092;2022-10-31T08:25:40;11.32;;;5.28;;
55811;SDS011;41742;52.048;6.092;2022-10-31T08:28:08;11.10;;;5.65;;
55811;SDS011;41742;52.048;6.092;2022-10-31T08:30:36;12.38;;;5.78;;
55811;SDS011;41742;52.048;6.092;2022-10-31T08:33:21;9.20;;;5.97;;
55811;SDS011;41742;52.048;6.092;2022-10-31T08:38:48;12.27;;;6.07;;
55811;SDS011;41742;52.048;6.092;2022-10-31T08:41:15;9.43;;;5.15;;
55811;SDS011;41742;52.048;6.092;2022-10-31T08:43:40;10.43;;;5.65;;
55811;SDS011;41742;52.048;6.092;2022-10-31T08:46:06;14.10;;;5.97;;
55811;SDS011;41742;52.048;6.092;2022-10-31T08:48:32;9.93;;;6.03;;
55811;SDS011;41742;52.048;6.092;2022-10-31T08:50:59;13.98;;;6.38;;
55811;SDS011;41742;52.048;6.092;2022-10-31T08:53:26;8.52;;;5.20;;
55811;SDS011;41742;52.048;6.092;2022-10-31T08:56:09;8.98;;;5.43;;
55811;SDS011;41742;52.048;6.092;2022-10-31T08:58:35;13.80;;;6.18;;
55811;SDS011;41742;52.048;6.092;2022-10-31T09:01:01;12.57;;;5.85;;
55811;SDS011;41742;52.048;6.092;2022-10-31T09:03:30;16.83;;;6.32;;
55811;SDS011;41742;52.048;6.092;2022-10-31T09:05:59;9.25;;;5.88;;
55811;SDS011;41742;52.048;6.092;2022-10-31T09:08:28;12.57;;;5.93;;
55811;SDS011;41742;52.048;6.092;2022-10-31T09:10:56;15.55;;;8.23;;
55811;SDS011;41742;52.048;6.092;2022-10-31T09:13:42;13.95;;;6.88;;
55811;SDS011;41742;52.048;6.092;2022-10-31T09:16:28;14.55;;;6.63;;
55811;SDS011;41742;52.048;6.092;2022-10-31T09:18:53;13.57;;;7.18;;
55811;SDS011;41742;52.048;6.092;2022-10-31T09:21:19;9.35;;;5.93;;
55811;SDS011;41742;52.048;6.092;2022-10-31T09:23:45;10.15;;;6.07;;
55811;SDS011;41742;52.048;6.092;2022-10-31T09:26:11;13.60;;;7.32;;
55811;SDS011;41742;52.048;6.092;2022-10-31T09:28:40;12.65;;;7.32;;
55811;SDS011;41742;52.048;6.092;2022-10-31T09:31:11;13.82;;;7.43;;
55811;SDS011;41742;52.048;6.092;2022-10-31T09:33:59;13.68;;;7.88;;
55811;SDS011;41742;52.048;6.092;2022-10-31T09:36:48;13.68;;;7.82;;
55811;SDS011;41742;52.048;6.092;2022-10-31T09:39:20;14.52;;;8.10;;
55811;SDS011;41742;52.048;6.092;2022-10-31T09:56:19;21.92;;;9.65;;
55811;SDS011;41742;52.048;6.092;2022-10-31T09:58:49;15.93;;;8.02;;
55811;SDS011;41742;52.048;6.092;2022-10-31T10:01:26;22.58;;;9.77;;
55811;SDS011;41742;52.048;6.092;2022-10-31T10:04:20;20.10;;;9.05;;
55811;SDS011;41742;52.048;6.092;2022-10-31T10:07:10;18.23;;;7.70;;
55811;SDS011;41742;52.048;6.092;2022-10-31T10:10:20;15.82;;;9.15;;
55811;SDS011;41742;52.048;6.092;2022-10-31T10:13:54;17.13;;;7.90;;
55811;SDS011;41742;52.048;6.092;2022-10-31T10:16:47;22.08;;;8.20;;
55811;SDS011;41742;52.048;6.092;2022-10-31T10:19:33;23.10;;;8.93;;
55811;SDS011;41742;52.048;6.092;2022-10-31T10:27:46;23.02;;;9.38;;
55811;SDS011;41742;52.048;6.092;2022-10-31T10:30:17;18.73;;;8.48;;
55811;SDS011;41742;52.048;6.092;2022-10-31T10:32:51;11.05;;;6.32;;
55811;SDS011;41742;52.048;6.092;2022-10-31T10:35:27;16.40;;;7.40;;
55811;SDS011;41742;52.048;6.092;2022-10-31T10:38:03;17.77;;;8.32;;
55811;SDS011;41742;52.048;6.092;2022-10-31T10:40:37;22.08;;;7.55;;
55811;SDS011;41742;52.048;6.092;2022-10-31T10:43:19;16.52;;;7.85;;
55811;SDS011;41742;52.048;6.092;2022-10-31T10:45:49;17.10;;;7.45;;
55811;SDS011;41742;52.048;6.092;2022-10-31T10:48:44;27.98;;;8.77;;
55811;SDS011;41742;52.048;6.092;2022-10-31T10:51:23;18.48;;;9.43;;
55811;SDS011;41742;52.048;6.092;2022-10-31T10:59:13;27.52;;;9.63;;
55811;SDS011;41742;52.048;6.092;2022-10-31T11:01:43;23.70;;;9.13;;
55811;SDS011;41742;52.048;6.092;2022-10-31T11:04:51;24.33;;;8.60;;
55811;SDS011;41742;52.048;6.092;2022-10-31T11:07:00;18.65;;;8.43;;
55811;SDS011;41742;52.048;6.092;2022-10-31T11:09:34;26.48;;;9.18;;
55811;SDS011;41742;52.048;6.092;2022-10-31T11:12:05;14.32;;;7.50;;
55811;SDS011;41742;52.048;6.092;2022-10-31T11:14:48;17.25;;;8.35;;
55811;SDS011;41742;52.048;6.092;2022-10-31T11:17:28;18.20;;;8.75;;
55811;SDS011;41742;52.048;6.092;2022-10-31T11:20:00;20.83;;;8.52;;
55811;SDS011;41742;52.048;6.092;2022-10-31T11:22:38;16.50;;;8.65;;
55811;SDS011;41742;52.048;6.092;2022-10-31T11:25:25;17.95;;;7.55;;
55811;SDS011;41742;52.048;6.092;2022-10-31T11:28:04;12.65;;;8.68;;
55811;SDS011;41742;52.048;6.092;2022-10-31T11:30:44;18.23;;;8.95;;
55811;SDS011;41742;52.048;6.092;2022-10-31T11:33:20;14.88;;;7.63;;
55811;SDS011;41742;52.048;6.092;2022-10-31T11:35:51;27.20;;;9.07;;
55811;SDS011;41742;52.048;6.092;2022-10-31T11:38:19;21.13;;;8.95;;
55811;SDS011;41742;52.048;6.092;2022-10-31T11:40:51;19.50;;;8.90;;
55811;SDS011;41742;52.048;6.092;2022-10-31T11:43:19;23.90;;;9.90;;
55811;SDS011;41742;52.048;6.092;2022-10-31T11:45:44;16.40;;;8.63;;
55811;SDS011;41742;52.048;6.092;2022-10-31T11:48:20;26.65;;;10.25;;
55811;SDS011;41742;52.048;6.092;2022-10-31T11:50:50;21.30;;;9.23;;
55811;SDS011;41742;52.048;6.092;2022-10-31T11:53:24;25.33;;;10.82;;
55811;SDS011;41742;52.048;6.092;2022-10-31T11:56:04;24.05;;;9.18;;
55811;SDS011;41742;52.048;6.092;2022-10-31T11:58:38;18.00;;;9.18;;
55811;SDS011;41742;52.048;6.092;2022-10-31T12:01:04;29.52;;;10.68;;
55811;SDS011;41742;52.048;6.092;2022-10-31T12:03:40;24.20;;;9.38;;
55811;SDS011;41742;52.048;6.092;2022-10-31T12:06:27;21.05;;;10.32;;
55811;SDS011;41742;52.048;6.092;2022-10-31T12:08:59;23.45;;;11.13;;
55811;SDS011;41742;52.048;6.092;2022-10-31T12:22:26;22.23;;;9.55;;
55811;SDS011;41742;52.048;6.092;2022-10-31T12:30:54;23.85;;;10.35;;
55811;SDS011;41742;52.048;6.092;2022-10-31T12:33:47;21.55;;;8.95;;
55811;SDS011;41742;52.048;6.092;2022-10-31T13:05:38;14.30;;;6.07;;
55811;SDS011;41742;52.048;6.092;2022-10-31T13:08:10;23.00;;;9.18;;
55811;SDS011;41742;52.048;6.092;2022-10-31T13:10:57;14.75;;;7.82;;
55811;SDS011;41742;52.048;6.092;2022-10-31T13:16:15;20.65;;;8.75;;
55811;SDS011;41742;52.048;6.092;2022-10-31T13:18:51;19.33;;;8.32;;
55811;SDS011;41742;52.048;6.092;2022-10-31T13:21:30;15.07;;;7.18;;
55811;SDS011;41742;52.048;6.092;2022-10-31T13:24:20;22.13;;;7.63;;
55811;SDS011;41742;52.048;6.092;2022-10-31T13:26:52;22.70;;;8.93;;
55811;SDS011;41742;52.048;6.092;2022-10-31T13:29:27;24.33;;;10.35;;
55811;SDS011;41742;52.048;6.092;2022-10-31T13:32:07;15.30;;;7.78;;
55811;SDS011;41742;52.048;6.092;2022-10-31T13:34:50;16.48;;;7.57;;
55811;SDS011;41742;52.048;6.092;2022-10-31T13:39:59;21.58;;;8.68;;
55811;SDS011;41742;52.048;6.092;2022-10-31T13:42:58;17.70;;;8.77;;
55811;SDS011;41742;52.048;6.092;2022-10-31T13:45:48;21.73;;;9.38;;
55811;SDS011;41742;52.048;6.092;2022-10-31T13:50:57;17.80;;;8.02;;
55811;SDS011;41742;52.048;6.092;2022-10-31T13:53:45;25.02;;;8.77;;
55811;SDS011;41742;52.048;6.092;2022-10-31T13:56:31;22.13;;;10.00;;
55811;SDS011;41742;52.048;6.092;2022-10-31T14:01:33;24.52;;;8.07;;
55811;SDS011;41742;52.048;6.092;2022-10-31T14:04:04;31.90;;;10.63;;
55811;SDS011;41742;52.048;6.092;2022-10-31T14:06:44;23.98;;;9.75;;
55811;SDS011;41742;52.048;6.092;2022-10-31T14:09:26;18.63;;;7.60;;
55811;SDS011;41742;52.048;6.092;2022-10-31T14:12:03;24.20;;;10.13;;
55811;SDS011;41742;52.048;6.092;2022-10-31T14:14:33;28.35;;;11.13;;
55811;SDS011;41742;52.048;6.092;2022-10-31T14:17:12;27.77;;;11.10;;
55811;SDS011;41742;52.048;6.092;2022-10-31T14:19:56;22.23;;;10.82;;
55811;SDS011;41742;52.048;6.092;2022-10-31T14:22:45;24.35;;;9.27;;
55811;SDS011;41742;52.048;6.092;2022-10-31T14:28:19;14.23;;;7.72;;
55811;SDS011;41742;52.048;6.092;2022-10-31T14:30:56;23.15;;;9.40;;
55811;SDS011;41742;52.048;6.092;2022-10-31T14:33:24;23.77;;;9.90;;
55811;SDS011;41742;52.048;6.092;2022-10-31T14:36:00;29.13;;;11.75;;
55811;SDS011;41742;52.048;6.092;2022-10-31T14:41:29;25.88;;;9.90;;
55811;SDS011;41742;52.048;6.092;2022-10-31T14:49:20;20.60;;;8.93;;
55811;SDS011;41742;52.048;6.092;2022-10-31T14:52:07;24.50;;;9.45;;
55811;SDS011;41742;52.048;6.092;2022-10-31T14:54:40;19.30;;;9.50;;
55811;SDS011;41742;52.048;6.092;2022-10-31T14:57:19;24.20;;;9.95;;
55811;SDS011;41742;52.048;6.092;2022-10-31T14:59:52;21.67;;;10.93;;
55811;SDS011;41742;52.048;6.092;2022-10-31T15:02:24;30.95;;;11.38;;
55811;SDS011;41742;52.048;6.092;2022-10-31T15:04:53;26.58;;;11.40;;
55811;SDS011;41742;52.048;6.092;2022-10-31T15:09:55;30.15;;;12.38;;
55811;SDS011;41742;52.048;6.092;2022-10-31T15:14:51;17.50;;;10.07;;
55811;SDS011;41742;52.048;6.092;2022-10-31T15:17:17;25.70;;;10.95;;
55811;SDS011;41742;52.048;6.092;2022-10-31T15:19:43;31.88;;;11.68;;
55811;SDS011;41742;52.048;6.092;2022-10-31T15:22:10;28.38;;;11.32;;
55811;SDS011;41742;52.048;6.092;2022-10-31T15:24:40;30.65;;;11.40;;
55811;SDS011;41742;52.048;6.092;2022-10-31T15:27:15;23.63;;;12.30;;
55811;SDS011;41742;52.048;6.092;2022-10-31T15:29:49;21.70;;;10.77;;
55811;SDS011;41742;52.048;6.092;2022-10-31T15:32:23;27.60;;;10.15;;
55811;SDS011;41742;52.048;6.092;2022-10-31T15:34:53;20.20;;;10.38;;
55811;SDS011;41742;52.048;6.092;2022-10-31T15:37:21;28.20;;;11.02;;
55811;SDS011;41742;52.048;6.092;2022-10-31T15:39:50;26.73;;;11.45;;
55811;SDS011;41742;52.048;6.092;2022-10-31T15:44:48;29.90;;;10.93;;
55811;SDS011;41742;52.048;6.092;2022-10-31T15:47:19;27.13;;;11.85;;
55811;SDS011;41742;52.048;6.092;2022-10-31T15:49:54;20.08;;;10.63;;
55811;SDS011;41742;52.048;6.092;2022-10-31T15:52:41;21.45;;;10.95;;
55811;SDS011;41742;52.048;6.092;2022-10-31T15:57:39;19.45;;;11.20;;
55811;SDS011;41742;52.048;6.092;2022-10-31T16:00:20;25.10;;;11.18;;
55811;SDS011;41742;52.048;6.092;2022-10-31T16:03:02;30.73;;;11.90;;
55811;SDS011;41742;52.048;6.092;2022-10-31T16:05:49;25.15;;;11.40;;
55811;SDS011;41742;52.048;6.092;2022-10-31T16:08:24;33.30;;;11.02;;
55811;SDS011;41742;52.048;6.092;2022-10-31T16:13:38;24.27;;;12.60;;
55811;SDS011;41742;52.048;6.092;2022-10-31T16:16:25;24.40;;;11.77;;
55811;SDS011;41742;52.048;6.092;2022-10-31T16:18:53;27.50;;;11.23;;
55811;SDS011;41742;52.048;6.092;2022-10-31T16:21:26;33.85;;;13.20;;
55811;SDS011;41742;52.048;6.092;2022-10-31T16:24:03;30.13;;;11.85;;
55811;SDS011;41742;52.048;6.092;2022-10-31T16:26:38;23.25;;;11.15;;
55811;SDS011;41742;52.048;6.092;2022-10-31T16:29:04;30.88;;;13.90;;
55811;SDS011;41742;52.048;6.092;2022-10-31T16:31:39;30.33;;;13.43;;
55811;SDS011;41742;52.048;6.092;2022-10-31T16:34:10;28.42;;;12.82;;
55811;SDS011;41742;52.048;6.092;2022-10-31T16:36:44;28.27;;;12.27;;
55811;SDS011;41742;52.048;6.092;2022-10-31T16:39:10;30.13;;;11.13;;
55811;SDS011;41742;52.048;6.092;2022-10-31T16:41:46;29.55;;;14.15;;
55811;SDS011;41742;52.048;6.092;2022-10-31T16:44:26;26.25;;;11.90;;
55811;SDS011;41742;52.048;6.092;2022-10-31T16:47:34;20.98;;;11.52;;
55811;SDS011;41742;52.048;6.092;2022-10-31T16:49:42;25.52;;;10.63;;
55811;SDS011;41742;52.048;6.092;2022-10-31T16:52:08;27.42;;;10.57;;
55811;SDS011;41742;52.048;6.092;2022-10-31T16:54:34;33.47;;;11.50;;
55811;SDS011;41742;52.048;6.092;2022-10-31T16:57:00;29.15;;;11.38;;
55811;SDS011;41742;52.048;6.092;2022-10-31T16:59:28;21.25;;;11.60;;
55811;SDS011;41742;52.048;6.092;2022-10-31T17:01:55;21.80;;;11.30;;
55811;SDS011;41742;52.048;6.092;2022-10-31T17:04:21;22.23;;;10.57;;
55811;SDS011;41742;52.048;6.092;2022-10-31T17:06:47;25.85;;;11.27;;
55811;SDS011;41742;52.048;6.092;2022-10-31T17:09:12;35.95;;;10.48;;
55811;SDS011;41742;52.048;6.092;2022-10-31T17:11:44;28.10;;;9.40;;
55811;SDS011;41742;52.048;6.092;2022-10-31T17:14:12;39.13;;;11.68;;
55811;SDS011;41742;52.048;6.092;2022-10-31T17:16:38;23.17;;;9.77;;
55811;SDS011;41742;52.048;6.092;2022-10-31T17:19:04;20.75;;;9.32;;
55811;SDS011;41742;52.048;6.092;2022-10-31T17:21:29;22.80;;;9.85;;
55811;SDS011;41742;52.048;6.092;2022-10-31T17:23:55;25.50;;;10.10;;
55811;SDS011;41742;52.048;6.092;2022-10-31T17:26:21;27.70;;;10.20;;
55811;SDS011;41742;52.048;6.092;2022-10-31T17:28:47;21.77;;;9.48;;
55811;SDS011;41742;52.048;6.092;2022-10-31T17:31:32;21.10;;;10.23;;
55811;SDS011;41742;52.048;6.092;2022-10-31T17:34:03;28.98;;;9.65;;
55811;SDS011;41742;52.048;6.092;2022-10-31T17:36:30;20.98;;;10.25;;